Airfield :
LOGIN :

Register | Disclaimer

   EN    FR    IT 

 










Legend :    VFR   Marginal VFR   IFR   Intensive IFR   Very Intensive IFR
Visi :
Ceiling :
>= 8 km
>= 3000ft
5 to 8 km
1000 to 3000 ft
1500m to 5 km
500 to 1000 ft
800 to 1500m
200 to 500 ft
< 800m
< 200 ft
Symbols :   Thunderstorms  Fog  Heavy snow  Heavy precipitations  Wind > 20 kt
SIGMETs :     Misc.  Thunderstorms  Icing  Turbulence  Mountain Waves  Volcanic Ashes






- Airport Elevation : 13 ft
- IATA code : CEQ


LFMD - Cannes Mandelieu

CURRENT METAR :
  • 280730Z AUTO 03007KT 330V090 9999 -DZ SCT035 SCT052 BKN076 14/09 Q1013 TEMPO 06025G35KT 4000 RA

EXPIRED METARs :
  • 280700Z AUTO 04006KT 350V090 9999 BKN037 BKN046 OVC066 14/09 Q1013 TEMPO 06025G35KT 4000 RA
  • 280630Z AUTO 01006KT 320V040 9999 SCT034/// SCT045/// BKN056/// ///TCU 14/09 Q1012 TEMPO 06025G35KT 4000 RA BECMG BKN030
  • 280600Z AUTO 05006KT 360V110 9999 -RA OVC034/// ///TCU 15/09 Q1013 TEMPO 06025G35KT 4000 RA BECMG BKN030
  • 280530Z AUTO 06005KT 010V110 9999 BKN034/// OVC070/// ///TCU 16/07 Q1012 TEMPO 06025G35KT 4000 RA BECMG BKN030
  • 280500Z AUTO 03003KT 340V130 9999 FEW036 BKN090 BKN150 15/07 Q1012 TEMPO 06025G35KT 4000 RA

TAF AMD TAF LFMD
Valid from the 28 at 03:00 until the 29 at 03:00 UTC


280311Z 2803/2903 03010KT 9999 BKN030
PROB40
TEMPO 2803/2818 06025G35KT
TEMPO 2803/2818 4000 RA
BECMG 2813/2815 CAVOK
BECMG 2820/2822 VRB03KT
ATIS : +33 4 93 48 73 23



MET'MAP, your aeronautical weather chart ! - Copyright ORBIFLY December 2007 - Disclaimer

ORBIFLY MET'MAP TEAM :

Programming & Development : Alexandra Zaïnal
Concept & original design : Baudouin d'Aumeries
Assistance for programming : Marc-Olivier Méhu
Technical & hardware support : Manuel Goepfert

Contact : metmap@orbifly.com




SOURCES & CREDITS :

   NOAA